Time;durP1;ratioP1;P1;durP2;ratioP2;P2;SDS_P1;SDS_P2;PMS_P1;PMS_P2;Temp;Humidity;BMP_temperature;BMP_pressure;BME280_temperature;BME280_humidity;BME280_pressure;Samples;Min_cycle;Max_cycle;Signal;HPM_P1;HPM_P2
2021/05/20 00:01:19;;;;;;;5.82;2.20;;;;;;;8.48;82.80;96610.66;5028973;28;20049;-66
2021/05/20 00:03:45;;;;;;;3.78;1.95;;;;;;;8.52;83.33;96607.06;5028644;28;20079;-65
2021/05/20 00:06:11;;;;;;;4.13;2.45;;;;;;;8.55;83.08;96606.44;5029245;28;20047;-66
2021/05/20 00:08:37;;;;;;;3.53;2.20;;;;;;;8.57;83.47;96603.44;5030275;28;20049;-65
2021/05/20 00:11:04;;;;;;;3.22;2.05;;;;;;;8.54;83.11;96596.69;5033153;28;20041;-66
2021/05/20 00:13:30;;;;;;;4.25;2.25;;;;;;;8.45;83.54;96605.81;5032703;28;20057;-65
2021/05/20 00:15:57;;;;;;;4.40;2.60;;;;;;;8.50;83.51;96603.81;5033955;28;20080;-65
2021/05/20 00:18:23;;;;;;;3.40;2.58;;;;;;;8.58;83.70;96602.34;5032181;28;20049;-66
2021/05/20 00:20:49;;;;;;;4.78;2.55;;;;;;;8.61;83.44;96601.72;5033466;28;20050;-65
2021/05/20 00:23:15;;;;;;;3.80;2.38;;;;;;;8.66;83.56;96606.25;5032008;28;20068;-66
2021/05/20 00:25:40;;;;;;;7.45;2.92;;;;;;;8.70;83.82;96601.84;5033602;28;20041;-65
2021/05/20 00:28:07;;;;;;;3.42;2.45;;;;;;;8.73;83.74;96593.91;5032181;28;20484;-66
2021/05/20 00:30:33;;;;;;;3.38;2.30;;;;;;;8.77;83.62;96600.38;5033271;28;20050;-65
2021/05/20 00:33:00;;;;;;;3.88;2.53;;;;;;;8.79;83.24;96600.06;5032629;28;20072;-65
2021/05/20 00:35:26;;;;;;;3.67;2.30;;;;;;;8.81;82.97;96606.78;5032045;28;20060;-66
2021/05/20 00:37:52;;;;;;;3.72;2.33;;;;;;;8.79;82.65;96597.34;5032484;28;20057;-65
2021/05/20 00:40:18;;;;;;;5.28;2.85;;;;;;;8.78;82.57;96593.81;5031600;28;20073;-66
2021/05/20 00:42:45;;;;;;;5.18;2.50;;;;;;;8.79;82.53;96594.63;5033339;28;20050;-66
2021/05/20 00:45:12;;;;;;;7.07;2.50;;;;;;;8.72;82.07;96599.63;5032797;28;20088;-66
2021/05/20 00:47:38;;;;;;;3.85;2.42;;;;;;;8.72;82.45;96599.63;5033307;28;20045;-65
2021/05/20 00:50:07;;;;;;;4.30;2.30;;;;;;;8.69;82.09;96589.38;5031673;28;20072;-66
2021/05/20 00:52:33;;;;;;;3.55;2.13;;;;;;;8.69;82.17;96595.59;5032787;28;20495;-66
2021/05/20 00:55:00;;;;;;;5.78;2.55;;;;;;;8.69;82.65;96601.03;5032232;28;20049;-66
2021/05/20 00:57:27;;;;;;;4.20;2.25;;;;;;;8.69;82.12;96600.25;5032156;28;20045;-66
2021/05/20 00:59:54;;;;;;;3.78;2.22;;;;;;;8.66;81.76;96590.75;5032532;28;20053;-65
2021/05/20 01:02:21;;;;;;;5.30;2.45;;;;;;;8.66;81.07;96596.19;5031367;28;20051;-65
2021/05/20 01:04:47;;;;;;;3.33;2.38;;;;;;;8.66;81.17;96595.41;5032686;28;20547;-65
2021/05/20 01:07:14;;;;;;;3.85;2.20;;;;;;;8.63;81.48;96592.19;5030857;28;20052;-66
2021/05/20 01:09:40;;;;;;;3.70;2.17;;;;;;;8.69;81.58;96597.53;5033031;28;20455;-65
2021/05/20 01:12:08;;;;;;;3.83;2.40;;;;;;;8.71;81.43;96598.00;5031324;28;20123;-66
2021/05/20 01:14:38;;;;;;;4.90;2.60;;;;;;;8.75;81.11;96599.03;5032556;28;20053;-66
2021/05/20 01:17:04;;;;;;;4.03;2.20;;;;;;;8.78;80.53;96595.72;5030802;28;20099;-66
2021/05/20 01:19:30;;;;;;;4.72;2.88;;;;;;;8.75;80.64;96588.19;5031857;28;20053;-65
2021/05/20 01:21:57;;;;;;;5.45;2.38;;;;;;;8.75;80.66;96588.19;5031898;28;20051;-65
2021/05/20 01:24:23;;;;;;;3.47;2.08;;;;;;;8.71;80.15;96587.97;5031333;28;20540;-66
2021/05/20 01:26:50;;;;;;;5.97;2.08;;;;;;;8.69;79.32;96594.81;5032141;28;20080;-65
2021/05/20 01:29:16;;;;;;;2.88;2.10;;;;;;;8.62;78.94;96587.06;5030957;28;20046;-66
2021/05/20 01:31:42;;;;;;;3.55;1.95;;;;;;;8.58;79.19;96588.75;5032424;28;20064;-65
2021/05/20 01:34:09;;;;;;;3.30;1.80;;;;;;;8.56;79.51;96589.06;5030584;28;20080;-66
2021/05/20 01:36:35;;;;;;;3.25;2.20;;;;;;;8.49;79.80;96585.91;5032209;28;20049;-65
2021/05/20 01:39:03;;;;;;;4.43;2.15;;;;;;;8.49;79.84;96602.22;5031081;28;20056;-65
2021/05/20 01:41:30;;;;;;;4.32;2.50;;;;;;;8.44;80.03;96602.28;5031614;28;20056;-65
2021/05/20 01:43:56;;;;;;;3.75;2.65;;;;;;;8.43;80.73;96597.97;5031288;28;20053;-65
2021/05/20 01:46:22;;;;;;;3.97;2.58;;;;;;;8.39;80.90;96596.94;5031043;28;20130;-65
2021/05/20 01:48:48;;;;;;;4.28;2.30;;;;;;;8.37;80.80;96596.47;5031725;28;20414;-65
2021/05/20 01:51:17;;;;;;;6.30;2.70;;;;;;;8.38;81.18;96595.34;5030503;28;20144;-66
2021/05/20 01:53:45;;;;;;;4.90;2.55;;;;;;;8.35;81.16;96596.72;5031983;28;20084;-66
2021/05/20 01:56:15;;;;;;;5.20;2.42;;;;;;;8.30;80.38;96598.69;5030434;28;20053;-66
2021/05/20 01:58:41;;;;;;;4.68;2.67;;;;;;;8.25;80.92;96598.81;5032062;28;20049;-65
2021/05/20 02:01:08;;;;;;;4.25;2.58;;;;;;;8.27;81.34;96591.97;5030281;28;20048;-66
2021/05/20 02:03:35;;;;;;;4.00;2.38;;;;;;;8.26;81.21;96597.72;5031541;28;20053;-66
2021/05/20 02:06:02;;;;;;;4.13;2.63;;;;;;;8.24;81.01;96600.69;5030406;28;20056;-67
2021/05/20 02:08:28;;;;;;;4.82;2.58;;;;;;;8.24;81.27;96597.97;5030667;28;20107;-66
2021/05/20 02:10:54;;;;;;;4.53;2.80;;;;;;;8.28;81.20;96595.50;5031187;28;20057;-66
2021/05/20 02:13:21;;;;;;;8.00;3.38;;;;;;;8.30;81.05;96595.97;5030304;28;20702;-66
2021/05/20 02:15:47;;;;;;;4.25;2.83;;;;;;;8.31;80.92;96595.72;5031488;28;20049;-66
2021/05/20 02:18:14;;;;;;;4.85;2.97;;;;;;;8.32;81.07;96601.94;5029844;28;20050;-66
2021/05/20 02:20:40;;;;;;;5.40;2.92;;;;;;;8.33;81.04;96593.50;5031462;28;20053;-66
2021/05/20 02:23:07;;;;;;;5.53;3.08;;;;;;;8.33;81.20;96598.13;5029835;28;20511;-66
2021/05/20 02:25:33;;;;;;;4.53;3.28;;;;;;;8.29;80.94;96602.53;5031537;28;20049;-66
2021/05/20 02:27:59;;;;;;;4.60;2.97;;;;;;;8.23;80.86;96592.84;5030319;28;20055;-66
2021/05/20 02:30:26;;;;;;;4.15;2.67;;;;;;;8.17;80.95;96594.06;5029855;28;20060;-66
2021/05/20 02:32:52;;;;;;;4.05;3.00;;;;;;;8.09;81.26;96593.63;5030459;28;20053;-66
2021/05/20 02:35:19;;;;;;;6.10;3.33;;;;;;;8.07;81.25;96601.25;5030108;28;20041;-66
2021/05/20 02:37:46;;;;;;;7.68;3.08;;;;;;;8.07;81.75;96597.72;5030134;28;20049;-65
2021/05/20 02:40:12;;;;;;;5.38;3.45;;;;;;;8.01;81.38;96602.44;5029597;28;20120;-65
2021/05/20 02:42:39;;;;;;;6.07;3.60;;;;;;;8.02;81.58;96598.63;5031091;28;20046;-65
2021/05/20 02:45:07;;;;;;;5.82;3.40;;;;;;;7.98;81.65;96602.22;5029608;28;20095;-68
2021/05/20 02:47:34;;;;;;;5.90;3.75;;;;;;;7.93;81.71;96600.38;5031329;28;20049;-65
2021/05/20 02:50:00;;;;;;;7.28;3.13;;;;;;;7.91;82.43;96597.16;5029911;28;20504;-67
2021/05/20 02:52:29;;;;;;;6.43;3.67;;;;;;;7.94;82.21;96596.59;5022497;28;20094;-67
2021/05/20 02:54:55;;;;;;;5.57;3.22;;;;;;;7.90;82.04;96603.69;5030350;28;20508;-67
2021/05/20 02:57:21;;;;;;;5.57;2.97;;;;;;;7.86;82.31;96599.94;5030013;28;20099;-67
2021/05/20 02:59:47;;;;;;;6.25;3.53;;;;;;;7.87;82.23;96596.13;5030597;28;20049;-67
2021/05/20 03:02:13;;;;;;;6.13;3.13;;;;;;;7.88;82.26;96603.16;5029522;28;20098;-67
2021/05/20 03:04:39;;;;;;;5.25;3.63;;;;;;;7.93;81.92;96599.56;5030691;28;20065;-67
2021/05/20 03:07:07;;;;;;;5.25;3.15;;;;;;;7.89;81.62;96593.94;5030065;28;20041;-67
2021/05/20 03:09:34;;;;;;;6.00;3.40;;;;;;;7.90;81.55;96603.69;5030859;28;20508;-67
2021/05/20 03:12:01;;;;;;;6.05;3.35;;;;;;;7.89;81.29;96599.38;5029620;28;20045;-67
2021/05/20 03:14:28;;;;;;;4.93;3.40;;;;;;;7.84;81.51;96599.44;5022363;28;20056;-67
2021/05/20 03:16:54;;;;;;;4.85;3.00;;;;;;;7.81;81.30;96608.16;5029784;28;20053;-67
2021/05/20 03:19:21;;;;;;;4.63;2.75;;;;;;;7.79;81.53;96602.25;5029832;28;20490;-67
2021/05/20 03:21:48;;;;;;;4.03;2.53;;;;;;;7.77;81.76;96607.13;5029985;28;20496;-67
2021/05/20 03:24:14;;;;;;;6.47;3.50;;;;;;;7.78;81.59;96600.63;5029635;28;20484;-67
2021/05/20 03:26:40;;;;;;;5.55;2.95;;;;;;;7.80;81.90;96603.84;5030517;28;20057;-68
2021/05/20 03:29:06;;;;;;;3.95;2.80;;;;;;;7.81;81.38;96602.75;5029317;28;20049;-67
2021/05/20 03:31:32;;;;;;;6.78;2.78;;;;;;;7.78;81.27;96608.75;5030690;28;20042;-67
2021/05/20 03:33:58;;;;;;;5.30;2.88;;;;;;;7.76;81.29;96605.53;5029236;28;20053;-67
2021/05/20 03:36:25;;;;;;;3.80;2.60;;;;;;;7.77;81.26;96601.72;5030211;28;20459;-67
2021/05/20 03:38:51;;;;;;;4.25;2.90;;;;;;;7.80;81.43;96606.56;5028737;28;20042;-67
2021/05/20 03:41:17;;;;;;;4.15;2.40;;;;;;;7.76;81.23;96608.22;5031724;28;20049;-67
2021/05/20 03:43:43;;;;;;;6.00;2.40;;;;;;;7.75;80.77;96612.06;5033413;28;20103;-67
2021/05/20 03:46:10;;;;;;;5.90;2.05;;;;;;;7.71;80.72;96613.72;5033500;28;20049;-67
2021/05/20 03:48:35;;;;;;;4.88;1.90;;;;;;;7.68;80.58;96623.25;5033635;28;20049;-67
2021/05/20 03:51:02;;;;;;;3.63;2.33;;;;;;;7.66;80.81;96617.31;5033044;28;20056;-68
2021/05/20 03:53:30;;;;;;;3.13;2.05;;;;;;;7.68;81.06;96625.16;5034106;28;20056;-67
2021/05/20 03:55:58;;;;;;;3.30;2.00;;;;;;;7.69;81.39;96626.78;5033101;28;20120;-67
2021/05/20 03:58:24;;;;;;;7.85;2.00;;;;;;;7.71;81.22;96632.69;5033755;28;20056;-67
2021/05/20 04:00:50;;;;;;;4.55;2.05;;;;;;;7.66;81.53;96632.78;5032985;28;20400;-67
2021/05/20 04:03:22;;;;;;;3.17;2.10;;;;;;;7.72;81.88;96631.59;5033656;28;20056;-67
2021/05/20 04:05:51;;;;;;;2.63;1.95;;;;;;;7.79;81.67;96632.06;5033103;28;20057;-67
2021/05/20 04:08:17;;;;;;;4.32;2.10;;;;;;;7.83;81.22;96638.50;5032560;28;20063;-68
2021/05/20 04:10:43;;;;;;;2.92;1.80;;;;;;;7.92;81.71;96635.94;5033094;28;20068;-67
2021/05/20 04:13:09;;;;;;;5.82;2.10;;;;;;;7.97;81.26;96638.56;5032742;28;20641;-67
2021/05/20 04:15:35;;;;;;;2.45;1.60;;;;;;;7.95;81.02;96638.88;5033602;28;20060;-67
2021/05/20 04:18:01;;;;;;;3.97;1.73;;;;;;;8.02;81.18;96642.00;5032492;28;20084;-67
2021/05/20 04:20:27;;;;;;;2.63;1.50;;;;;;;8.11;81.53;96651.09;5033838;28;20049;-67
2021/05/20 04:22:53;;;;;;;3.28;1.73;;;;;;;8.19;81.05;96651.50;5032640;28;20046;-67
2021/05/20 04:25:19;;;;;;;1.73;1.20;;;;;;;8.26;80.18;96651.97;5033122;28;20057;-67
2021/05/20 04:27:46;;;;;;;3.17;1.30;;;;;;;8.28;80.22;96657.88;5032397;28;20140;-67
2021/05/20 04:30:14;;;;;;;2.40;1.50;;;;;;;8.24;79.83;96665.00;5033024;28;20057;-68
2021/05/20 04:32:41;;;;;;;2.05;1.27;;;;;;;8.30;79.89;96658.38;5032511;28;20052;-68
2021/05/20 04:35:08;;;;;;;2.75;1.60;;;;;;;8.31;79.82;96655.41;5032252;28;20049;-68
2021/05/20 04:37:34;;;;;;;3.50;1.60;;;;;;;8.36;79.98;96651.84;5031632;28;20054;-67
2021/05/20 04:40:00;;;;;;;2.85;1.50;;;;;;;8.40;80.31;96660.97;5032517;28;20080;-68
2021/05/20 04:42:27;;;;;;;3.72;1.30;;;;;;;8.42;78.90;96666.94;5032656;28;20330;-68
2021/05/20 04:44:53;;;;;;;1.95;1.50;;;;;;;8.45;79.38;96666.31;5031991;28;20416;-68
2021/05/20 04:47:20;;;;;;;2.38;1.20;;;;;;;8.48;79.05;96668.44;5032080;28;20172;-68
2021/05/20 04:49:47;;;;;;;1.65;1.17;;;;;;;8.45;78.82;96660.88;5031923;28;20084;-68
2021/05/20 04:52:12;;;;;;;4.07;1.63;;;;;;;8.48;78.43;96673.06;5031732;28;20052;-68
2021/05/20 04:54:38;;;;;;;2.05;1.15;;;;;;;8.47;78.43;96672.28;5031927;28;20046;-68
2021/05/20 04:57:05;;;;;;;2.08;1.50;;;;;;;8.54;78.60;96677.31;5032405;28;20049;-67
2021/05/20 04:59:31;;;;;;;4.20;1.20;;;;;;;8.51;78.16;96681.44;5032237;28;20404;-68
2021/05/20 05:01:57;;;;;;;1.65;1.08;;;;;;;8.45;78.31;96685.31;5032259;28;20152;-67
2021/05/20 05:04:24;;;;;;;2.92;1.30;;;;;;;8.44;78.59;96683.72;5031742;28;20152;-68
2021/05/20 05:06:50;;;;;;;2.13;1.30;;;;;;;8.45;78.68;96688.03;5031379;28;20041;-68
2021/05/20 05:09:16;;;;;;;3.70;1.50;;;;;;;8.50;78.36;96696.09;5031924;28;20112;-68
2021/05/20 05:11:42;;;;;;;3.38;1.30;;;;;;;8.59;79.06;96694.31;5030849;28;20042;-68
2021/05/20 05:14:08;;;;;;;3.20;1.17;;;;;;;8.61;78.26;96692.13;5031766;28;20053;-68
2021/05/20 05:16:34;;;;;;;1.83;1.05;;;;;;;8.67;78.13;96694.75;5031368;28;20049;-66
2021/05/20 05:19:00;;;;;;;3.00;1.25;;;;;;;8.70;78.51;96694.16;5032175;28;20080;-68
2021/05/20 05:21:27;;;;;;;3.70;1.58;;;;;;;8.71;78.15;96706.63;5031344;28;20484;-66
2021/05/20 05:23:54;;;;;;;3.20;1.38;;;;;;;8.66;78.02;96703.97;5032026;28;20641;-66
2021/05/20 05:26:21;;;;;;;3.22;1.40;;;;;;;8.66;78.58;96698.56;5031475;28;20520;-66
2021/05/20 05:28:47;;;;;;;3.95;1.20;;;;;;;8.66;77.96;96698.56;5031663;28;20516;-66
2021/05/20 05:31:15;;;;;;;2.90;1.65;;;;;;;8.72;78.44;96697.34;5031665;28;20446;-66
2021/05/20 05:33:41;;;;;;;2.72;1.40;;;;;;;8.71;78.03;96702.00;5031079;28;20095;-66
2021/05/20 05:36:07;;;;;;;5.20;1.67;;;;;;;8.75;79.20;96705.72;5031967;28;20083;-70
2021/05/20 05:38:34;;;;;;;2.45;1.50;;;;;;;8.82;79.10;96708.06;5030980;28;20175;-71
2021/05/20 05:41:00;;;;;;;3.85;1.60;;;;;;;8.89;79.05;96708.50;5032438;28;20045;-71
2021/05/20 05:43:26;;;;;;;4.32;1.67;;;;;;;8.99;79.13;96708.31;5031442;28;20550;-70
2021/05/20 05:45:52;;;;;;;3.83;1.60;;;;;;;9.08;78.94;96711.97;5031768;28;20076;-70
2021/05/20 05:48:18;;;;;;;4.20;1.85;;;;;;;9.14;78.59;96721.63;5030346;28;20053;-70
2021/05/20 05:50:46;;;;;;;3.95;1.60;;;;;;;9.18;78.35;96721.00;5030031;28;20045;-70
2021/05/20 05:53:12;;;;;;;4.13;1.75;;;;;;;9.20;78.23;96719.63;5029544;28;20064;-70
2021/05/20 05:55:38;;;;;;;3.45;1.90;;;;;;;9.26;78.47;96723.03;5030475;28;20418;-70
2021/05/20 05:58:04;;;;;;;4.18;1.92;;;;;;;9.29;78.66;96727.84;5030358;28;20038;-70
2021/05/20 06:00:30;;;;;;;2.20;1.58;;;;;;;9.33;77.53;96728.88;5029569;28;20047;-70
2021/05/20 06:02:57;;;;;;;3.63;1.88;;;;;;;9.37;77.68;96729.91;5030879;28;20580;-70
2021/05/20 06:05:23;;;;;;;2.92;1.77;;;;;;;9.42;78.24;96729.81;5029462;28;20412;-70
2021/05/20 06:07:49;;;;;;;3.38;1.70;;;;;;;9.50;77.69;96737.28;5031541;28;20124;-70
2021/05/20 06:10:15;;;;;;;5.80;1.90;;;;;;;9.58;78.13;96731.09;5030871;28;20053;-70
2021/05/20 06:12:42;;;;;;;4.38;2.33;;;;;;;9.62;77.13;96732.13;5031358;28;20132;-70
2021/05/20 06:15:09;;;;;;;4.93;1.90;;;;;;;9.67;76.44;96737.47;5030652;28;20053;-70
2021/05/20 06:17:36;;;;;;;5.82;2.00;;;;;;;9.56;75.38;96749.66;5031190;28;20060;-71
2021/05/20 06:20:02;;;;;;;5.00;1.88;;;;;;;9.49;76.57;96741.06;5031052;28;20049;-70
2021/05/20 06:22:28;;;;;;;4.70;2.22;;;;;;;9.54;76.74;96751.03;5030870;28;20496;-69
2021/05/20 06:24:54;;;;;;;2.83;1.80;;;;;;;9.52;76.05;96745.91;5031805;28;20053;-70
2021/05/20 06:27:20;;;;;;;2.85;1.75;;;;;;;9.51;76.61;96749.75;5030705;28;20413;-70
2021/05/20 06:29:47;;;;;;;3.60;1.85;;;;;;;9.55;75.81;96748.03;5031665;28;20080;-70
2021/05/20 06:32:13;;;;;;;4.22;2.40;;;;;;;9.61;76.42;96755.00;5030476;28;20045;-70
2021/05/20 06:34:39;;;;;;;4.32;2.10;;;;;;;9.71;76.58;96753.16;5031262;28;20057;-70
2021/05/20 06:37:05;;;;;;;3.55;2.03;;;;;;;9.68;75.89;96752.66;5029607;28;20077;-70
2021/05/20 06:39:31;;;;;;;5.50;2.38;;;;;;;9.70;75.70;96754.28;5031434;28;20054;-70
2021/05/20 06:41:57;;;;;;;4.35;2.22;;;;;;;9.70;75.59;96765.16;5030867;28;20053;-70
2021/05/20 06:44:23;;;;;;;2.95;1.90;;;;;;;9.75;76.38;96756.88;5030400;28;20420;-71
2021/05/20 06:46:50;;;;;;;3.38;2.20;;;;;;;9.81;75.28;96766.56;5031230;28;20056;-70
2021/05/20 06:49:16;;;;;;;5.63;1.98;;;;;;;9.85;74.86;96760.22;5030083;28;20060;-70
2021/05/20 06:51:42;;;;;;;5.43;2.08;;;;;;;9.94;75.23;96765.75;5031446;28;20459;-70
2021/05/20 06:54:08;;;;;;;4.32;2.30;;;;;;;10.04;75.05;96765.53;5030191;28;20095;-69
2021/05/20 06:56:35;;;;;;;3.47;2.20;;;;;;;10.08;75.50;96765.75;5031308;28;20110;-70
2021/05/20 07:01:46;;;;;;;4.93;2.58;;;;;;;10.20;75.07;96769.53;5030642;28;20099;-70
2021/05/20 07:04:14;;;;;;;4.38;2.20;;;;;;;10.23;75.49;96772.75;5030517;28;20060;-70
2021/05/20 07:06:40;;;;;;;5.32;2.20;;;;;;;10.31;73.81;96772.06;5030258;28;20045;-70
2021/05/20 07:09:07;;;;;;;3.05;1.98;;;;;;;10.40;75.28;96772.97;5029868;28;20514;-71
2021/05/20 07:11:33;;;;;;;3.72;1.88;;;;;;;10.39;73.69;96769.44;5030188;28;20042;-70
2021/05/20 07:13:59;;;;;;;4.50;1.73;;;;;;;10.42;73.19;96776.19;5031092;28;20052;-70
2021/05/20 07:16:25;;;;;;;3.05;1.80;;;;;;;10.42;73.92;96778.91;5032044;28;20045;-70
2021/05/20 07:18:51;;;;;;;4.22;2.00;;;;;;;10.43;74.02;96773.16;5035360;28;20109;-70
2021/05/20 07:21:18;;;;;;;2.72;1.75;;;;;;;10.41;72.85;96785.47;5033725;28;20111;-70
2021/05/20 07:23:44;;;;;;;6.00;1.80;;;;;;;10.51;73.03;96773.56;5034780;28;20586;-70
2021/05/20 07:26:10;;;;;;;3.60;1.70;;;;;;;10.66;72.64;96775.94;5034033;28;20049;-70
2021/05/20 07:28:36;;;;;;;4.68;1.88;;;;;;;10.74;71.50;96775.16;5034504;28;20060;-70
2021/05/20 07:31:02;;;;;;;2.70;1.77;;;;;;;10.74;71.82;96772.44;5033854;28;20045;-70
2021/05/20 07:33:30;;;;;;;3.67;1.90;;;;;;;10.89;72.06;96774.81;5034297;28;20513;-70
2021/05/20 07:35:56;;;;;;;5.20;2.30;;;;;;;10.94;71.85;96771.16;5034938;28;20054;-70
2021/05/20 07:38:23;;;;;;;2.40;1.73;;;;;;;11.11;72.13;96765.81;5033146;28;20149;-70
2021/05/20 07:40:49;;;;;;;5.13;1.92;;;;;;;11.18;71.95;96765.41;5034872;28;20045;-70
2021/05/20 07:43:15;;;;;;;2.42;1.70;;;;;;;11.32;71.96;96768.03;5033683;28;20401;-70
2021/05/20 07:45:41;;;;;;;3.58;2.17;;;;;;;11.47;71.10;96775.81;5034598;28;20133;-70
2021/05/20 07:48:07;;;;;;;7.20;1.80;;;;;;;11.62;71.40;96758.22;5033738;28;20045;-71
2021/05/20 07:50:33;;;;;;;5.88;1.88;;;;;;;11.79;69.09;96760.22;5034410;28;20535;-70
2021/05/20 07:52:59;;;;;;;3.00;1.60;;;;;;;11.88;66.00;96756.44;5034307;28;20045;-70
2021/05/20 07:55:26;;;;;;;1.88;1.30;;;;;;;12.07;64.53;96758.91;5033759;28;20242;-70
2021/05/20 07:57:54;;;;;;;3.42;1.38;;;;;;;12.25;66.07;96760.53;5034274;28;20045;-70
2021/05/20 08:00:21;;;;;;;2.78;1.42;;;;;;;12.43;65.19;96771.50;5033190;28;20044;-70
2021/05/20 08:02:50;;;;;;;3.55;1.70;;;;;;;13.15;63.37;96765.34;5034425;28;20046;-70
2021/05/20 08:05:24;;;;;;;4.80;1.30;;;;;;;12.94;61.86;96767.94;5032916;28;20115;-70
2021/05/20 08:07:54;;;;;;;2.25;1.30;;;;;;;12.41;64.77;96760.88;5033776;28;20050;-70
2021/05/20 08:10:39;;;;;;;2.45;1.42;;;;;;;11.94;68.58;96759.81;5033315;28;20143;-70
2021/05/20 08:13:06;;;;;;;4.38;1.00;;;;;;;11.71;68.70;96750.91;5033371;28;20451;-70
2021/05/20 08:15:32;;;;;;;1.38;0.88;;;;;;;11.56;65.18;96754.03;5033798;28;20049;-70
2021/05/20 08:17:58;;;;;;;1.98;0.88;;;;;;;11.99;65.14;96762.41;5033484;28;20045;-70
2021/05/20 08:20:24;;;;;;;1.90;0.90;;;;;;;12.83;64.66;96753.00;5033608;28;20550;-70
2021/05/20 08:22:50;;;;;;;1.63;1.10;;;;;;;12.93;64.15;96751.88;5032792;28;20525;-70
2021/05/20 08:25:16;;;;;;;2.05;1.02;;;;;;;12.75;64.42;96751.91;5033403;28;20481;-70
2021/05/20 08:27:42;;;;;;;1.38;0.90;;;;;;;12.87;63.67;96753.19;5032780;28;20054;-70
2021/05/20 08:30:11;;;;;;;2.17;1.23;;;;;;;13.42;64.32;96755.22;5033170;28;20045;-70
2021/05/20 08:32:37;;;;;;;2.42;1.08;;;;;;;14.42;60.43;96756.50;5032567;28;20053;-70
2021/05/20 08:35:03;;;;;;;2.15;1.35;;;;;;;15.60;58.69;96745.09;5033045;28;20052;-70
2021/05/20 08:37:29;;;;;;;5.00;1.20;;;;;;;16.65;54.18;96743.41;5032655;28;20057;-70
2021/05/20 08:39:55;;;;;;;4.80;1.30;;;;;;;17.57;52.73;96741.63;5033075;28;20122;-70
2021/05/20 08:42:21;;;;;;;4.20;1.20;;;;;;;18.59;51.57;96740.97;5032755;28;20101;-71
2021/05/20 08:44:47;;;;;;;4.30;1.20;;;;;;;19.39;46.07;96743.00;5032625;28;20052;-71
2021/05/20 08:47:14;;;;;;;1.58;0.80;;;;;;;19.38;42.76;96737.88;5033117;28;20049;-71
2021/05/20 08:49:44;;;;;;;2.13;0.93;;;;;;;19.38;44.75;96730.38;5032367;28;20532;-70
2021/05/20 08:52:12;;;;;;;5.70;0.98;;;;;;;19.48;42.75;96727.00;5032949;28;20073;-70
2021/05/20 08:54:38;;;;;;;5.80;1.05;;;;;;;19.97;43.03;96731.84;5032477;28;20445;-70
2021/05/20 08:57:05;;;;;;;2.20;0.80;;;;;;;20.62;42.03;96721.75;5032871;28;20133;-70
2021/05/20 08:59:31;;;;;;;2.10;0.70;;;;;;;20.16;39.04;96721.88;5032697;28;20054;-71
2021/05/20 09:01:58;;;;;;;1.17;0.90;;;;;;;18.96;40.94;96727.59;5032578;28;20562;-70
2021/05/20 09:04:26;;;;;;;0.82;0.70;;;;;;;17.38;43.98;96728.56;5032552;28;20050;-69
2021/05/20 09:06:54;;;;;;;2.63;1.10;;;;;;;17.07;47.12;96729.28;5032070;28;20042;-70
2021/05/20 09:09:23;;;;;;;2.42;0.70;;;;;;;16.37;45.08;96721.34;5032694;28;20049;-69
2021/05/20 09:11:50;;;;;;;3.00;1.13;;;;;;;15.79;51.20;96734.41;5032333;28;20091;-70
2021/05/20 09:14:30;;;;;;;1.48;1.00;;;;;;;15.38;52.22;96738.91;5032817;28;20052;-69
2021/05/20 09:17:11;;;;;;;1.60;0.82;;;;;;;15.73;52.70;96727.56;5032068;28;20081;-69
2021/05/20 09:19:38;;;;;;;3.28;1.00;;;;;;;16.42;49.58;96715.59;5026171;28;20408;-70
2021/05/20 09:22:06;;;;;;;6.60;1.88;;;;;;;16.99;53.50;96715.69;5032504;28;20041;-70
2021/05/20 09:24:49;;;;;;;3.65;1.20;;;;;;;16.76;50.75;96716.25;5031898;28;20057;-70
2021/05/20 09:27:27;;;;;;;2.50;1.02;;;;;;;16.11;46.85;96723.66;5032274;28;20049;-70
2021/05/20 09:30:13;;;;;;;4.53;0.80;;;;;;;15.56;48.48;96716.75;5031423;28;20057;-70
2021/05/20 09:32:41;;;;;;;2.17;0.65;;;;;;;15.20;51.32;96714.75;5025706;28;20041;-70
2021/05/20 09:35:09;;;;;;;1.98;0.77;;;;;;;14.58;50.86;96710.97;5031693;28;20056;-70
2021/05/20 09:37:45;;;;;;;2.40;1.10;;;;;;;14.18;53.22;96707.84;5031730;28;20404;-70
2021/05/20 09:40:13;;;;;;;0.60;0.60;;;;;;;14.30;54.72;96705.16;5031614;28;20045;-69
2021/05/20 09:42:39;;;;;;;3.65;0.70;;;;;;;14.80;54.73;96713.34;5031330;28;20053;-70
2021/05/20 09:45:06;;;;;;;0.80;0.52;;;;;;;15.21;50.17;96717.13;5031750;28;20049;-69
2021/05/20 09:47:32;;;;;;;2.40;0.75;;;;;;;15.53;51.50;96709.19;5031313;28;20055;-69
2021/05/20 09:50:00;;;;;;;3.53;0.80;;;;;;;15.84;52.96;96706.72;5032388;28;20049;-69
2021/05/20 09:52:27;;;;;;;1.67;0.80;;;;;;;16.06;49.66;96715.66;5030699;28;20045;-69
2021/05/20 09:54:54;;;;;;;1.85;0.88;;;;;;;16.06;52.96;96702.72;5031896;28;20519;-69
2021/05/20 09:57:28;;;;;;;3.80;1.20;;;;;;;16.34;49.19;96713.78;5030899;28;20493;-68
2021/05/20 10:00:08;;;;;;;2.63;0.80;;;;;;;16.22;50.13;96705.56;5031524;28;20553;-69
2021/05/20 10:02:35;;;;;;;1.00;0.80;;;;;;;16.11;47.57;96698.94;5024637;28;20519;-69
2021/05/20 10:05:19;;;;;;;4.05;1.00;;;;;;;15.67;50.66;96706.97;5030871;28;20509;-69
2021/05/20 10:07:46;;;;;;;1.85;0.98;;;;;;;15.42;49.56;96711.59;5031716;28;20045;-69
2021/05/20 10:10:13;;;;;;;1.60;0.80;;;;;;;15.32;50.45;96707.34;5030765;28;20179;-69
2021/05/20 10:12:43;;;;;;;2.40;0.60;;;;;;;15.35;49.64;96711.34;5031838;28;20069;-69
2021/05/20 10:15:11;;;;;;;2.45;0.70;;;;;;;15.39;52.01;96706.75;5030776;28;20049;-70
2021/05/20 10:17:39;;;;;;;0.85;0.60;;;;;;;15.52;51.82;96707.59;5031130;28;20107;-70
2021/05/20 10:20:07;;;;;;;1.17;0.60;;;;;;;15.31;52.38;96710.41;5029977;28;20052;-69
2021/05/20 10:22:33;;;;;;;1.40;0.60;;;;;;;15.12;51.32;96716.41;5030968;28;20119;-68
2021/05/20 10:25:00;;;;;;;0.65;0.50;;;;;;;15.20;47.99;96718.28;5031988;28;20046;-69
2021/05/20 10:27:27;;;;;;;0.60;0.50;;;;;;;15.12;46.52;96716.41;5030691;28;20045;-68
2021/05/20 10:29:53;;;;;;;0.90;0.40;;;;;;;14.66;48.75;96712.81;5031490;28;20042;-69
2021/05/20 10:32:20;;;;;;;0.82;0.50;;;;;;;14.83;51.39;96707.19;5030459;28;20056;-68
2021/05/20 10:35:04;;;;;;;0.55;0.40;;;;;;;15.22;51.51;96713.25;5031402;28;20544;-69
2021/05/20 10:37:37;;;;;;;1.40;0.32;;;;;;;15.46;48.29;96714.47;5030462;28;20102;-69
2021/05/20 10:40:27;;;;;;;0.45;0.40;;;;;;;15.28;48.15;96711.09;5030844;28;20054;-69
2021/05/20 10:43:03;;;;;;;2.55;0.65;;;;;;;15.38;47.60;96710.66;5029307;28;20045;-69
2021/05/20 10:45:29;;;;;;;0.45;0.40;;;;;;;15.62;49.11;96701.66;5030226;28;20049;-69
2021/05/20 10:48:20;;;;;;;0.98;0.50;;;;;;;15.53;49.23;96706.44;5031176;28;20563;-69
2021/05/20 10:51:04;;;;;;;1.98;0.70;;;;;;;15.26;50.41;96710.63;5009862;28;20136;-70
2021/05/20 10:53:48;;;;;;;;;;;;;;;14.82;50.25;96719.28;5010995;28;20400;-69
2021/05/20 10:56:51;;;;;;;1.52;0.45;;;;;;;14.42;51.06;96723.63;5011448;28;20353;-68
2021/05/20 10:59:38;;;;;;;0.30;0.30;;;;;;;14.12;52.54;96718.19;5010129;28;20073;-69
2021/05/20 11:02:05;;;;;;;0.60;0.20;;;;;;;13.81;51.28;96733.00;5010565;28;20050;-69
2021/05/20 11:04:36;;;;;;;5.05;0.40;;;;;;;13.64;55.20;96727.59;5009826;28;20046;-70
2021/05/20 11:07:03;;;;;;;0.73;0.30;;;;;;;13.34;54.93;96725.94;5010138;28;20558;-70
2021/05/20 11:09:47;;;;;;;0.20;0.20;;;;;;;13.26;56.76;96733.84;5011328;28;20616;-70
2021/05/20 11:12:15;;;;;;;2.17;0.47;;;;;;;13.14;58.89;96725.47;5010426;28;20054;-70
2021/05/20 11:14:45;;;;;;;0.88;0.40;;;;;;;13.03;56.68;96726.94;5011090;28;20539;-70
2021/05/20 11:17:31;;;;;;;1.02;0.50;;;;;;;12.92;59.74;96722.94;5010101;28;20092;-71
2021/05/20 11:20:28;;;;;;;2.45;0.65;;;;;;;12.78;57.63;96723.91;5010587;28;20111;-69
2021/05/20 11:23:25;;;;;;;0.60;0.47;;;;;;;12.74;58.85;96722.97;5006588;28;20111;-70
2021/05/20 11:26:14;;;;;;;1.05;0.40;;;;;;;12.73;57.81;96720.56;5011237;28;20066;-70
2021/05/20 11:28:55;;;;;;;0.93;0.60;;;;;;;12.96;59.89;96718.44;5024373;28;20056;-69
2021/05/20 11:31:23;;;;;;;0.70;0.30;;;;;;;13.13;56.11;96723.88;5030213;28;20489;-69
2021/05/20 11:50:50;;;;;;;0.80;0.40;;;;;;;12.46;63.69;96725.22;5030412;28;20511;-67
2021/05/20 11:53:16;;;;;;;0.20;0.20;;;;;;;12.13;63.45;96718.59;5025789;28;20053;-68
2021/05/20 11:55:42;;;;;;;1.17;0.32;;;;;;;11.81;65.20;96706.16;5030046;28;20057;-68
2021/05/20 11:58:08;;;;;;;6.13;3.38;;;;;;;11.83;67.66;96695.75;5029902;28;20056;-70
2021/05/20 12:00:34;;;;;;;1.40;0.77;;;;;;;11.97;68.52;96697.22;5029810;28;20125;-68
2021/05/20 12:03:00;;;;;;;0.80;0.50;;;;;;;12.19;67.69;96696.28;5033571;28;20049;-69